Time;durP1;ratioP1;P1;durP2;ratioP2;P2;SDS_P1;SDS_P2;PMS_P1;PMS_P2;Temp;Humidity;BMP_temperature;BMP_pressure;BME280_temperature;BME280_humidity;BME280_pressure;Samples;Min_cycle;Max_cycle;Signal;HPM_P1;HPM_P2
2022/05/27 00:00:17;;;;;;;5.60;2.50;;;21.30;45.70;;;;;;5078633;28;20436;-86
2022/05/27 00:02:45;;;;;;;3.07;2.20;;;21.40;45.80;;;;;;5071571;28;20447;-87
2022/05/27 00:05:13;;;;;;;3.83;2.20;;;21.50;46.10;;;;;;5088761;28;20448;-87
2022/05/27 00:07:40;;;;;;;4.27;2.20;;;21.60;46.20;;;;;;5074830;28;21069;-87
2022/05/27 00:10:10;;;;;;;4.40;2.40;;;21.50;46.80;;;;;;5090842;28;20455;-86
2022/05/27 00:12:38;;;;;;;2.60;2.20;;;21.40;47.10;;;;;;5073266;28;20455;-89
2022/05/27 00:15:07;;;;;;;3.90;2.87;;;21.20;46.00;;;;;;5062445;28;20463;-87
2022/05/27 00:17:33;;;;;;;2.73;1.83;;;20.90;46.90;;;;;;5080845;28;20482;-87
2022/05/27 00:20:00;;;;;;;2.73;2.10;;;20.90;46.60;;;;;;5089003;28;20447;-89
2022/05/27 00:22:27;;;;;;;1.90;1.80;;;21.00;46.80;;;;;;5060317;28;21218;-87
2022/05/27 00:24:54;;;;;;;2.57;2.37;;;21.20;47.40;;;;;;5073551;28;20457;-87
2022/05/27 00:27:21;;;;;;;4.97;2.03;;;21.30;47.10;;;;;;5076356;28;20467;-88
2022/05/27 00:29:49;;;;;;;2.93;2.70;;;21.30;46.70;;;;;;5066369;28;20451;-86
2022/05/27 00:32:16;;;;;;;3.20;1.97;;;21.30;47.30;;;;;;5073372;28;20474;-87
2022/05/27 00:34:43;;;;;;;3.03;2.00;;;21.20;48.40;;;;;;5056955;28;20448;-87
2022/05/27 00:37:10;;;;;;;2.30;2.10;;;21.10;47.80;;;;;;5074169;28;20806;-86
2022/05/27 00:39:39;;;;;;;5.63;2.17;;;21.20;47.30;;;;;;5092447;28;20465;-87
2022/05/27 00:42:07;;;;;;;3.37;1.87;;;21.20;47.10;;;;;;5062769;28;20442;-88
2022/05/27 00:44:34;;;;;;;2.23;2.10;;;21.20;46.80;;;;;;5094111;28;20439;-86
2022/05/27 00:47:08;;;;;;;6.90;2.03;;;21.30;46.80;;;;;;5058208;28;20459;-87
2022/05/27 00:49:43;;;;;;;3.97;2.50;;;21.30;47.10;;;;;;5073097;28;20447;-87
2022/05/27 00:52:13;;;;;;;2.60;2.40;;;21.30;47.00;;;;;;5066143;28;20491;-86
2022/05/27 00:54:41;;;;;;;2.07;1.77;;;21.30;46.90;;;;;;5076090;28;20448;-86
2022/05/27 00:57:13;;;;;;;4.60;1.80;;;21.30;47.10;;;;;;5074492;28;20464;-87
2022/05/27 00:59:45;;;;;;;3.17;2.10;;;21.30;47.50;;;;;;5060514;28;20444;-86
2022/05/27 01:02:13;;;;;;;2.83;2.47;;;21.30;47.10;;;;;;5093256;28;20939;-88
2022/05/27 01:04:40;;;;;;;4.53;2.20;;;21.30;47.10;;;;;;5074224;28;20443;-87
2022/05/27 01:07:07;;;;;;;2.23;1.87;;;21.30;47.20;;;;;;5084037;28;20470;-87
2022/05/27 01:09:37;;;;;;;7.07;2.77;;;21.30;47.30;;;;;;5058981;28;20992;-87
2022/05/27 01:12:23;;;;;;;2.93;2.03;;;21.30;47.30;;;;;;5073487;28;20458;-87
2022/05/27 01:15:04;;;;;;;4.80;2.10;;;21.30;47.40;;;;;;5092739;28;21189;-86
2022/05/27 01:17:42;;;;;;;7.13;2.43;;;21.30;47.50;;;;;;5074252;28;20468;-90
2022/05/27 01:20:27;;;;;;;4.27;2.23;;;21.10;47.50;;;;;;5090209;28;20977;-87
2022/05/27 01:23:24;;;;;;;3.43;2.10;;;20.80;47.80;;;;;;5092323;28;20572;-89
2022/05/27 01:26:18;;;;;;;4.30;2.23;;;20.90;48.20;;;;;;5082865;28;20450;-89
2022/05/27 01:28:50;;;;;;;2.47;2.23;;;20.80;48.10;;;;;;5075972;28;20906;-87
2022/05/27 01:31:37;;;;;;;5.00;2.00;;;20.80;48.10;;;;;;5072322;28;20462;-86
2022/05/27 01:34:12;;;;;;;3.30;2.30;;;20.80;48.40;;;;;;5057803;28;20537;-88
2022/05/27 01:36:47;;;;;;;3.23;2.03;;;20.90;48.60;;;;;;5059102;28;20466;-87
2022/05/27 01:39:23;;;;;;;3.73;2.20;;;20.90;48.20;;;;;;5074152;28;20435;-88
2022/05/27 01:41:59;;;;;;;2.40;2.13;;;20.70;48.40;;;;;;5048238;28;20443;-88
2022/05/27 01:44:31;;;;;;;3.47;2.20;;;20.60;48.70;;;;;;5057541;28;20606;-86
2022/05/27 01:47:04;;;;;;;4.50;2.17;;;20.60;48.60;;;;;;5074654;28;20470;-86
2022/05/27 01:49:34;;;;;;;2.13;2.03;;;20.60;48.80;;;;;;5071958;28;20475;-89
2022/05/27 01:52:07;;;;;;;2.10;1.90;;;20.60;49.00;;;;;;5074143;28;21330;-88
2022/05/27 01:54:46;;;;;;;4.40;2.40;;;20.60;48.50;;;;;;5074366;28;20484;-87
2022/05/27 01:57:19;;;;;;;2.80;2.00;;;20.40;49.00;;;;;;5092529;28;20501;-86
2022/05/27 01:59:59;;;;;;;5.60;1.90;;;20.40;49.30;;;;;;5071997;28;20479;-87
2022/05/27 02:02:30;;;;;;;3.03;2.00;;;20.30;49.50;;;;;;5080552;28;20475;-87
2022/05/27 02:05:01;;;;;;;2.80;1.90;;;20.20;49.40;;;;;;5093247;28;20450;-87
2022/05/27 02:07:35;;;;;;;2.50;2.30;;;20.30;49.90;;;;;;5073984;28;21031;-88
2022/05/27 02:10:07;;;;;;;2.10;1.90;;;20.40;49.50;;;;;;5058342;28;20442;-87
2022/05/27 02:12:41;;;;;;;1.90;1.80;;;20.10;49.70;;;;;;5093387;28;20463;-87
2022/05/27 02:15:13;;;;;;;2.30;2.10;;;20.20;49.60;;;;;;5090836;28;20438;-87
2022/05/27 02:17:45;;;;;;;4.10;2.40;;;20.30;50.30;;;;;;5089031;28;20456;-88
2022/05/27 02:20:17;;;;;;;3.73;2.17;;;20.40;50.10;;;;;;5072808;28;20459;-88
2022/05/27 02:22:48;;;;;;;3.20;1.80;;;20.50;49.50;;;;;;5080760;28;20444;-87
2022/05/27 02:25:20;;;;;;;6.90;3.40;;;20.50;49.30;;;;;;5089934;28;20454;-89
2022/05/27 02:27:52;;;;;;;2.23;2.03;;;20.40;49.40;;;;;;5071991;28;20463;-87
2022/05/27 02:30:22;;;;;;;2.07;1.90;;;20.50;49.60;;;;;;5072838;28;20451;-87
2022/05/27 02:35:41;;;;;;;4.43;2.10;;;20.20;49.90;;;;;;5069847;28;20455;-87
2022/05/27 02:38:08;;;;;;;2.40;2.20;;;20.20;50.00;;;;;;5073252;28;20467;-86
2022/05/27 02:40:43;;;;;;;6.20;2.30;;;20.20;49.90;;;;;;5080270;28;20470;-86
2022/05/27 02:43:15;;;;;;;3.30;2.27;;;20.10;50.30;;;;;;5072956;28;20456;-86
2022/05/27 02:45:50;;;;;;;3.07;1.93;;;19.70;51.10;;;;;;5071142;28;20454;-88
2022/05/27 02:48:32;;;;;;;5.63;3.00;;;19.70;51.20;;;;;;5074858;28;20564;-86
2022/05/27 02:51:05;;;;;;;3.67;2.53;;;19.90;51.10;;;;;;5090703;28;20449;-88
2022/05/27 02:53:37;;;;;;;9.20;2.07;;;20.10;51.00;;;;;;5058189;28;20509;-89
2022/05/27 02:56:11;;;;;;;6.90;2.40;;;19.90;51.10;;;;;;5042269;28;20449;-87
2022/05/27 02:58:38;;;;;;;2.53;2.23;;;19.70;51.00;;;;;;5056849;28;20456;-87
2022/05/27 03:01:06;;;;;;;2.40;2.30;;;19.80;51.10;;;;;;5070179;28;20454;-86
2022/05/27 03:03:34;;;;;;;2.77;2.57;;;19.90;51.20;;;;;;5071962;28;20464;-87
2022/05/27 03:06:23;;;;;;;2.70;2.43;;;20.10;51.00;;;;;;5071536;28;20462;-88
2022/05/27 03:09:01;;;;;;;3.13;2.47;;;20.20;50.50;;;;;;5058110;28;20479;-85
2022/05/27 03:11:39;;;;;;;2.80;2.43;;;20.20;50.30;;;;;;5092333;28;20553;-86
2022/05/27 03:14:19;;;;;;;3.00;2.33;;;20.00;50.60;;;;;;5082087;28;20463;-86
2022/05/27 03:17:00;;;;;;;2.47;2.27;;;19.90;51.00;;;;;;5085246;28;20474;-87
2022/05/27 03:19:50;;;;;;;3.00;2.70;;;19.80;51.30;;;;;;5072287;28;20443;-87
2022/05/27 03:22:31;;;;;;;4.73;2.63;;;19.90;51.40;;;;;;5070914;28;20443;-87
2022/05/27 03:25:10;;;;;;;3.33;2.27;;;20.00;51.50;;;;;;5063529;28;20530;-87
2022/05/27 03:27:42;;;;;;;2.20;2.07;;;19.90;51.30;;;;;;5072230;28;20464;-86
2022/05/27 03:30:16;;;;;;;5.13;3.00;;;19.80;51.70;;;;;;5072803;28;20459;-85
2022/05/27 03:32:48;;;;;;;2.90;2.70;;;19.90;51.80;;;;;;5074584;28;20474;-85
2022/05/27 03:35:23;;;;;;;4.10;3.30;;;19.80;52.20;;;;;;5046459;28;20550;-86
2022/05/27 03:37:59;;;;;;;3.93;2.43;;;19.70;52.30;;;;;;5072770;28;21225;-86
2022/05/27 03:40:30;;;;;;;2.40;2.20;;;19.70;52.30;;;;;;5059002;28;20486;-86
2022/05/27 03:42:58;;;;;;;7.40;2.90;;;19.70;52.00;;;;;;5064258;28;20448;-87
2022/05/27 03:45:25;;;;;;;9.40;3.73;;;19.70;52.00;;;;;;5070660;28;20497;-87
2022/05/27 03:47:53;;;;;;;4.70;2.57;;;19.80;52.10;;;;;;5091327;28;20923;-86
2022/05/27 03:50:24;;;;;;;6.90;2.83;;;19.90;51.90;;;;;;5089041;28;20463;-86
2022/05/27 03:52:54;;;;;;;3.30;2.50;;;19.90;51.70;;;;;;5090065;28;20553;-87
2022/05/27 03:55:23;;;;;;;4.97;3.33;;;19.90;51.80;;;;;;5073973;28;20446;-87
2022/05/27 03:57:50;;;;;;;3.60;2.80;;;19.80;51.80;;;;;;5072218;28;20470;-87
2022/05/27 04:00:18;;;;;;;6.70;3.07;;;19.90;52.00;;;;;;5056256;28;20455;-87
2022/05/27 04:02:46;;;;;;;4.23;2.47;;;19.90;52.10;;;;;;5052186;28;20835;-87
2022/05/27 04:05:16;;;;;;;6.23;2.90;;;20.00;52.00;;;;;;5087065;28;20836;-86
2022/05/27 04:07:44;;;;;;;2.83;2.57;;;20.00;52.20;;;;;;5055557;28;21206;-87
2022/05/27 04:10:11;;;;;;;3.07;2.70;;;20.10;52.20;;;;;;5090089;28;20454;-89
2022/05/27 04:12:38;;;;;;;4.50;2.70;;;20.20;52.30;;;;;;5064268;28;20467;-87
2022/05/27 04:15:07;;;;;;;3.30;2.70;;;20.20;52.10;;;;;;5078319;28;20955;-86
2022/05/27 04:17:35;;;;;;;5.93;2.70;;;20.20;52.20;;;;;;5071609;28;20462;-86
2022/05/27 04:20:04;;;;;;;3.50;2.20;;;20.30;52.30;;;;;;5056803;28;20458;-89
2022/05/27 04:22:31;;;;;;;4.83;2.90;;;20.20;52.10;;;;;;5073088;28;21316;-85
2022/05/27 04:25:01;;;;;;;3.57;2.97;;;20.30;52.30;;;;;;5058841;28;20455;-86
2022/05/27 04:27:28;;;;;;;3.70;2.60;;;20.30;52.40;;;;;;5081929;28;20475;-86
2022/05/27 04:29:56;;;;;;;3.33;2.90;;;20.40;52.20;;;;;;5047316;28;20948;-86
2022/05/27 04:32:25;;;;;;;3.53;3.23;;;20.40;52.00;;;;;;5063685;28;20459;-86
2022/05/27 04:34:52;;;;;;;6.53;3.17;;;20.30;52.70;;;;;;5060340;28;20450;-86
2022/05/27 04:37:20;;;;;;;4.03;3.70;;;20.40;52.30;;;;;;5090408;28;20482;-87
2022/05/27 04:39:47;;;;;;;4.37;3.03;;;20.40;52.30;;;;;;5089402;28;20454;-85
2022/05/27 04:42:16;;;;;;;6.97;3.23;;;20.50;52.20;;;;;;5068403;28;20448;-86
2022/05/27 04:44:44;;;;;;;6.37;3.40;;;20.40;52.40;;;;;;5055335;28;20445;-85
2022/05/27 04:47:11;;;;;;;3.70;2.90;;;20.50;52.50;;;;;;5087353;28;20477;-86
2022/05/27 04:49:54;;;;;;;4.03;3.30;;;20.50;52.70;;;;;;5055974;28;21309;-87
2022/05/27 04:52:25;;;;;;;6.90;3.40;;;20.60;52.40;;;;;;5070594;28;20468;-86
2022/05/27 04:54:53;;;;;;;3.20;2.90;;;20.70;52.50;;;;;;5054291;28;20454;-87
2022/05/27 04:57:24;;;;;;;3.40;3.10;;;20.60;51.90;;;;;;5067022;28;20482;-86
2022/05/27 04:59:51;;;;;;;6.57;3.07;;;20.60;52.00;;;;;;5069715;28;20455;-85
2022/05/27 05:02:20;;;;;;;3.37;3.07;;;20.70;52.40;;;;;;5086404;28;20461;-85
2022/05/27 05:04:48;;;;;;;3.67;3.40;;;20.50;52.40;;;;;;5072451;28;20507;-85
2022/05/27 05:07:15;;;;;;;4.90;3.30;;;20.60;52.50;;;;;;5061836;28;20490;-87
2022/05/27 05:09:43;;;;;;;6.30;3.20;;;20.50;52.40;;;;;;5085540;28;20455;-86
2022/05/27 05:12:12;;;;;;;3.47;3.03;;;20.50;52.60;;;;;;5065977;28;21276;-87
2022/05/27 05:14:41;;;;;;;4.80;3.13;;;20.30;52.20;;;;;;5087333;28;20941;-86
2022/05/27 05:17:08;;;;;;;7.10;3.20;;;19.90;52.30;;;;;;5087061;28;20467;-86
2022/05/27 05:19:36;;;;;;;2.80;2.60;;;19.90;52.80;;;;;;5053552;28;21040;-86
2022/05/27 05:22:04;;;;;;;3.20;2.80;;;20.00;52.60;;;;;;5069222;28;20455;-90
2022/05/27 05:24:31;;;;;;;7.60;3.10;;;19.90;52.80;;;;;;5073249;28;20883;-86
2022/05/27 05:26:58;;;;;;;3.20;2.90;;;20.10;52.90;;;;;;5086745;28;20471;-87
2022/05/27 05:29:25;;;;;;;3.10;2.73;;;20.10;52.60;;;;;;5074650;28;20457;-87
2022/05/27 05:31:53;;;;;;;3.57;3.27;;;20.00;52.60;;;;;;5065586;28;20537;-87
2022/05/27 05:34:20;;;;;;;5.33;3.40;;;20.20;52.40;;;;;;5079826;28;20447;-88
2022/05/27 05:36:47;;;;;;;3.57;3.27;;;20.40;52.50;;;;;;5045134;28;20466;-86
2022/05/27 05:39:14;;;;;;;3.83;3.00;;;20.30;52.10;;;;;;5062185;28;21387;-89
2022/05/27 05:41:42;;;;;;;5.00;2.90;;;20.50;52.30;;;;;;5079401;28;20977;-87
2022/05/27 05:44:11;;;;;;;3.47;2.87;;;20.50;52.10;;;;;;5067874;28;20854;-87
2022/05/27 05:46:39;;;;;;;6.10;3.37;;;20.50;52.30;;;;;;5086875;28;20891;-86
2022/05/27 05:49:08;;;;;;;2.60;2.40;;;20.60;51.80;;;;;;5038364;28;20444;-87
2022/05/27 05:51:34;;;;;;;5.67;3.03;;;20.60;51.30;;;;;;5052898;28;20951;-88
2022/05/27 05:54:02;;;;;;;3.40;2.53;;;20.50;51.80;;;;;;5067703;28;20506;-88
2022/05/27 05:56:33;;;;;;;3.17;2.87;;;20.50;52.30;;;;;;5055886;28;20444;-88
2022/05/27 05:59:01;;;;;;;5.57;3.20;;;20.70;52.10;;;;;;5053639;28;20451;-88
2022/05/27 06:01:28;;;;;;;7.20;3.20;;;20.90;51.80;;;;;;5049576;28;20816;-87
2022/05/27 06:03:55;;;;;;;4.80;2.47;;;21.00;51.40;;;;;;5087642;28;20604;-87
2022/05/27 06:06:24;;;;;;;3.13;2.83;;;20.80;51.00;;;;;;5063877;28;20471;-88
2022/05/27 06:08:51;;;;;;;7.60;2.47;;;20.80;51.60;;;;;;5070261;28;20447;-87
2022/05/27 06:11:18;;;;;;;3.23;2.87;;;20.60;51.60;;;;;;5088254;28;20454;-88
2022/05/27 06:13:45;;;;;;;8.20;2.83;;;20.50;51.90;;;;;;5069309;28;21063;-87
2022/05/27 06:16:12;;;;;;;3.40;3.10;;;20.50;52.00;;;;;;5051952;28;20944;-88
2022/05/27 06:18:39;;;;;;;3.33;2.57;;;20.50;51.90;;;;;;5063520;28;20462;-88
2022/05/27 06:21:06;;;;;;;6.67;3.17;;;20.40;51.80;;;;;;5062922;28;20454;-87
2022/05/27 06:23:34;;;;;;;2.40;2.20;;;20.60;51.80;;;;;;5070600;28;20446;-86
2022/05/27 06:26:04;;;;;;;4.77;2.90;;;20.70;51.50;;;;;;5068095;28;21226;-87
2022/05/27 06:36:46;;;;;;;4.40;3.33;;;21.00;51.40;;;;;;5087400;28;21092;-87
2022/05/27 06:39:15;;;;;;;3.23;2.27;;;21.20;51.40;;;;;;5088462;28;21279;-87
2022/05/27 06:41:42;;;;;;;2.30;2.20;;;21.40;51.50;;;;;;5058047;28;20440;-88
2022/05/27 06:44:10;;;;;;;4.70;2.47;;;21.70;50.70;;;;;;5058497;28;20440;-87
2022/05/27 06:46:37;;;;;;;3.07;2.73;;;21.70;50.30;;;;;;5067843;28;20466;-87
2022/05/27 06:49:06;;;;;;;4.00;2.50;;;21.90;50.10;;;;;;5070305;28;20455;-87
2022/05/27 06:51:34;;;;;;;2.20;2.00;;;22.10;48.90;;;;;;5066633;28;20459;-86
2022/05/27 06:54:02;;;;;;;4.20;2.30;;;22.10;49.50;;;;;;5084582;28;20480;-87
2022/05/27 06:56:30;;;;;;;3.20;2.77;;;22.20;49.70;;;;;;5050239;28;20855;-86
2022/05/27 06:58:57;;;;;;;3.20;2.90;;;22.10;49.20;;;;;;5083281;28;20946;-85
2022/05/27 07:01:24;;;;;;;2.40;2.10;;;22.30;50.00;;;;;;5085417;28;20454;-87
2022/05/27 07:03:51;;;;;;;2.33;2.03;;;22.10;48.60;;;;;;5084203;28;20452;-86
2022/05/27 07:06:18;;;;;;;2.20;2.00;;;22.20;49.10;;;;;;5085470;28;20888;-87
2022/05/27 07:08:45;;;;;;;5.83;2.23;;;22.30;49.10;;;;;;5066014;28;20501;-86
2022/05/27 07:11:12;;;;;;;3.93;2.03;;;22.10;48.90;;;;;;5084053;28;21144;-87
2022/05/27 07:13:41;;;;;;;4.70;2.20;;;22.10;48.60;;;;;;5085999;28;20475;-87
2022/05/27 07:16:08;;;;;;;2.80;2.07;;;21.90;48.80;;;;;;5055826;28;20432;-88
2022/05/27 07:18:35;;;;;;;4.60;2.33;;;21.60;49.30;;;;;;5086080;28;20477;-85
2022/05/27 07:21:04;;;;;;;2.30;2.10;;;21.50;49.50;;;;;;5083812;28;21131;-86
2022/05/27 07:23:32;;;;;;;2.13;2.03;;;21.70;50.00;;;;;;5068038;28;20447;-87
2022/05/27 07:26:00;;;;;;;2.30;2.10;;;21.80;49.30;;;;;;5084041;28;20449;-87
2022/05/27 07:28:28;;;;;;;2.47;1.90;;;21.70;49.20;;;;;;5068492;28;20475;-86
2022/05/27 07:31:01;;;;;;;2.60;1.83;;;21.80;49.60;;;;;;5047425;28;20522;-89
2022/05/27 07:33:28;;;;;;;3.03;2.10;;;21.90;48.70;;;;;;5069901;28;20466;-89
2022/05/27 07:35:56;;;;;;;2.40;1.97;;;21.70;49.30;;;;;;5083620;28;20985;-88
2022/05/27 07:38:23;;;;;;;2.43;2.23;;;21.60;49.30;;;;;;5066590;28;20476;-87
2022/05/27 07:40:50;;;;;;;2.33;2.13;;;21.70;50.00;;;;;;5053857;28;21117;-87
2022/05/27 07:43:19;;;;;;;4.60;2.43;;;21.80;49.50;;;;;;5086456;28;20446;-88
2022/05/27 07:45:46;;;;;;;2.27;2.07;;;21.70;49.40;;;;;;5050081;28;20661;-88
2022/05/27 07:48:15;;;;;;;4.83;2.50;;;22.00;49.80;;;;;;5059710;28;21033;-88
2022/05/27 07:50:42;;;;;;;4.20;2.30;;;21.80;49.30;;;;;;5066296;28;20447;-87
2022/05/27 07:53:09;;;;;;;2.30;2.10;;;22.00;49.80;;;;;;5041576;28;20475;-88
2022/05/27 07:55:36;;;;;;;2.50;2.27;;;22.30;49.70;;;;;;5058236;28;20440;-88
2022/05/27 07:58:03;;;;;;;2.67;2.43;;;22.40;49.10;;;;;;5070112;28;20466;-91
2022/05/27 08:00:33;;;;;;;2.30;2.10;;;22.50;48.80;;;;;;5068202;28;20516;-90
2022/05/27 08:03:00;;;;;;;3.47;2.50;;;22.50;48.20;;;;;;5068970;28;21006;-88
2022/05/27 08:05:32;;;;;;;2.63;2.43;;;22.40;48.30;;;;;;5085134;28;20538;-88
2022/05/27 08:08:01;;;;;;;2.57;2.20;;;22.10;48.70;;;;;;5088850;28;20506;-88
2022/05/27 08:10:30;;;;;;;3.23;2.23;;;22.00;48.30;;;;;;5056339;28;20435;-88
2022/05/27 08:12:57;;;;;;;2.80;2.10;;;22.10;49.00;;;;;;5070521;28;20448;-87
2022/05/27 08:15:25;;;;;;;3.10;2.43;;;22.10;48.90;;;;;;5069701;28;20574;-88
2022/05/27 08:17:52;;;;;;;3.37;2.70;;;22.20;49.30;;;;;;5070630;28;20482;-87
2022/05/27 08:20:21;;;;;;;4.33;2.17;;;22.20;49.20;;;;;;5088292;28;21409;-88
2022/05/27 08:22:53;;;;;;;3.33;2.47;;;22.00;48.70;;;;;;5072383;28;21193;-89
2022/05/27 08:25:21;;;;;;;1.70;1.60;;;21.90;49.00;;;;;;5080538;28;20450;-91
2022/05/27 08:27:48;;;;;;;2.93;2.60;;;22.00;49.50;;;;;;5090096;28;20475;-88
2022/05/27 08:30:18;;;;;;;3.70;2.50;;;21.70;49.10;;;;;;5087715;28;20443;-88
2022/05/27 08:32:47;;;;;;;3.00;1.87;;;21.70;50.00;;;;;;5053859;28;20446;-88
2022/05/27 08:38:06;;;;;;;6.60;2.13;;;21.30;50.00;;;;;;5045444;28;20473;-88
2022/05/27 08:41:04;;;;;;;2.50;2.30;;;21.50;50.40;;;;;;5076096;28;20473;-88
2022/05/27 08:43:37;;;;;;;3.00;2.57;;;21.70;50.20;;;;;;5076398;28;20463;-88
2022/05/27 08:46:14;;;;;;;2.40;2.20;;;21.60;49.80;;;;;;5054175;28;20431;-88
2022/05/27 08:48:44;;;;;;;2.90;2.40;;;21.40;50.00;;;;;;5079488;28;20474;-87
2022/05/27 08:51:17;;;;;;;2.47;2.27;;;21.30;50.50;;;;;;5090951;28;20577;-87
2022/05/27 08:53:52;;;;;;;2.50;2.30;;;21.20;50.40;;;;;;5072739;28;20578;-89
2022/05/27 08:59:31;;;;;;;2.70;2.43;;;21.00;50.90;;;;;;5081908;28;20474;-89
2022/05/27 09:02:04;;;;;;;2.70;2.37;;;21.10;51.60;;;;;;5056177;28;20471;-89
2022/05/27 09:04:38;;;;;;;2.67;2.47;;;21.00;51.40;;;;;;5056900;28;20576;-89
2022/05/27 09:07:18;;;;;;;3.63;2.20;;;20.90;50.30;;;;;;5059004;28;20491;-88
2022/05/27 09:09:46;;;;;;;3.97;2.63;;;21.00;50.80;;;;;;5058613;28;20529;-89
2022/05/27 09:12:39;;;;;;;4.50;3.10;;;21.10;50.80;;;;;;5060004;28;20451;-89
2022/05/27 09:15:26;;;;;;;3.53;2.67;;;21.20;50.50;;;;;;5081287;28;20462;-88
2022/05/27 09:18:03;;;;;;;3.97;3.40;;;21.30;50.10;;;;;;5074098;28;20460;-91
2022/05/27 09:20:39;;;;;;;2.70;2.37;;;21.40;50.80;;;;;;5071975;28;21190;-89
2022/05/27 09:23:20;;;;;;;3.57;2.73;;;21.30;50.10;;;;;;5071405;28;20442;-89
2022/05/27 09:26:00;;;;;;;3.33;2.80;;;21.40;49.80;;;;;;5078886;28;20461;-93
2022/05/27 09:28:38;;;;;;;3.37;3.07;;;21.50;50.10;;;;;;5067328;28;20917;-88
2022/05/27 09:31:08;;;;;;;3.30;3.00;;;21.20;49.70;;;;;;5075203;28;21259;-90
2022/05/27 09:33:37;;;;;;;3.17;2.97;;;21.00;50.30;;;;;;5092081;28;20503;-88
2022/05/27 09:36:09;;;;;;;4.87;3.30;;;20.90;50.70;;;;;;5059112;28;20439;-89
2022/05/27 09:38:38;;;;;;;5.33;2.93;;;21.10;50.30;;;;;;5073054;28;20479;-88
2022/05/27 09:41:14;;;;;;;3.30;3.00;;;21.20;50.60;;;;;;5078521;28;20440;-89
2022/05/27 09:43:46;;;;;;;4.23;3.30;;;21.30;50.50;;;;;;5053839;28;21331;-88
2022/05/27 09:46:15;;;;;;;3.70;3.40;;;21.10;50.50;;;;;;5069819;28;20835;-88
2022/05/27 09:48:44;;;;;;;4.20;3.80;;;20.80;50.80;;;;;;5062364;28;20491;-88
2022/05/27 09:51:12;;;;;;;3.47;3.20;;;20.80;51.00;;;;;;5075125;28;20662;-88
2022/05/27 09:53:42;;;;;;;3.30;2.80;;;20.90;51.30;;;;;;5080943;28;20474;-87
2022/05/27 09:56:12;;;;;;;5.47;3.20;;;21.10;51.30;;;;;;5086179;28;20581;-88
2022/05/27 09:58:41;;;;;;;2.83;2.63;;;21.40;51.10;;;;;;5088187;28;20463;-89
2022/05/27 10:01:21;;;;;;;3.37;3.07;;;21.20;50.90;;;;;;5085994;28;20451;-88
2022/05/27 10:04:00;;;;;;;4.40;3.10;;;21.00;51.00;;;;;;5090114;28;20462;-88
2022/05/27 10:06:29;;;;;;;4.67;3.60;;;21.20;51.00;;;;;;5090715;28;20459;-87
2022/05/27 10:08:58;;;;;;;3.70;3.40;;;21.00;51.60;;;;;;5077158;28;20951;-91
2022/05/27 10:11:27;;;;;;;3.03;2.80;;;21.00;51.80;;;;;;5080489;28;20457;-87
2022/05/27 10:14:16;;;;;;;4.83;3.40;;;20.90;51.70;;;;;;5077432;28;20462;-88
2022/05/27 10:16:45;;;;;;;4.23;3.40;;;20.70;52.70;;;;;;5093622;28;21080;-88
2022/05/27 10:19:14;;;;;;;4.13;3.50;;;21.10;52.70;;;;;;5066763;28;20455;-87
2022/05/27 10:21:50;;;;;;;3.90;3.37;;;21.20;52.00;;;;;;5093352;28;20439;-88
2022/05/27 10:24:21;;;;;;;4.53;3.77;;;21.40;51.80;;;;;;5096182;28;20818;-88
2022/05/27 10:27:05;;;;;;;3.77;3.47;;;21.50;50.80;;;;;;5065846;28;20975;-86
2022/05/27 10:29:33;;;;;;;5.03;2.90;;;21.50;50.40;;;;;;5093256;28;20476;-87
2022/05/27 10:32:01;;;;;;;3.17;2.97;;;21.60;50.60;;;;;;5072133;28;20440;-88
2022/05/27 10:34:45;;;;;;;5.50;3.90;;;21.50;50.50;;;;;;5065720;28;20471;-88
2022/05/27 10:37:29;;;;;;;4.17;3.80;;;21.30;51.40;;;;;;5071156;28;20785;-87
2022/05/27 10:40:10;;;;;;;4.93;2.90;;;21.40;50.90;;;;;;5089787;28;20435;-89
2022/05/27 10:42:48;;;;;;;3.57;2.83;;;21.70;50.90;;;;;;5061648;28;20508;-88
2022/05/27 10:45:20;;;;;;;3.90;3.13;;;21.70;50.70;;;;;;5085958;28;20439;-89
2022/05/27 10:48:13;;;;;;;5.13;4.00;;;21.70;49.90;;;;;;5087607;28;20525;-88
2022/05/27 10:50:52;;;;;;;3.60;2.43;;;21.90;50.80;;;;;;5078360;28;20872;-88
2022/05/27 10:53:34;;;;;;;3.43;3.10;;;22.20;50.60;;;;;;5054203;28;21070;-88
2022/05/27 10:56:11;;;;;;;3.20;3.00;;;22.30;50.30;;;;;;5069253;28;20934;-91
2022/05/27 11:02:08;;;;;;;3.30;3.10;;;22.30;49.50;;;;;;5079329;28;20444;-89
2022/05/27 11:05:05;;;;;;;3.20;2.93;;;22.40;49.90;;;;;;5081504;28;20466;-87
2022/05/27 11:07:43;;;;;;;4.73;3.50;;;22.40;49.40;;;;;;5053942;28;20483;-88
2022/05/27 11:10:23;;;;;;;3.47;3.17;;;22.20;50.10;;;;;;5085487;28;20462;-88
2022/05/27 11:15:55;;;;;;;3.30;2.93;;;21.80;50.20;;;;;;5062760;28;20479;-90
2022/05/27 11:18:36;;;;;;;3.83;3.53;;;21.50;50.40;;;;;;5091097;28;20470;-91
2022/05/27 11:21:20;;;;;;;6.30;2.97;;;21.60;50.70;;;;;;5051192;28;20462;-89
2022/05/27 11:24:10;;;;;;;10.23;4.00;;;21.50;50.90;;;;;;5072490;28;20573;-90
2022/05/27 11:26:44;;;;;;;6.60;3.50;;;21.80;51.00;;;;;;5055630;28;20466;-90
2022/05/27 11:29:45;;;;;;;6.30;4.00;;;21.90;50.80;;;;;;5061155;28;20883;-89
2022/05/27 11:32:25;;;;;;;3.67;3.37;;;21.80;50.30;;;;;;5054093;28;20497;-91
2022/05/27 11:35:02;;;;;;;15.57;3.53;;;21.90;50.40;;;;;;5056653;28;20697;-89
2022/05/27 11:37:44;;;;;;;14.50;3.87;;;21.80;50.60;;;;;;5061979;28;20474;-88
2022/05/27 11:40:24;;;;;;;4.90;3.40;;;21.70;51.00;;;;;;5071351;28;20850;-88
2022/05/27 11:43:39;;;;;;;4.90;3.03;;;21.70;51.60;;;;;;5059864;28;20626;-91
2022/05/27 11:46:39;;;;;;;4.03;3.30;;;21.70;52.00;;;;;;5071559;28;20450;-89
2022/05/27 11:49:23;;;;;;;3.37;3.07;;;21.60;51.90;;;;;;5055629;28;20435;-89
2022/05/27 11:52:02;;;;;;;4.20;3.43;;;21.80;53.40;;;;;;5066790;28;20458;-89
2022/05/27 11:55:01;;;;;;;7.70;4.13;;;21.40;54.30;;;;;;5055264;28;20461;-89
2022/05/27 11:57:40;;;;;;;5.00;3.80;;;21.20;54.50;;;;;;5091000;28;21250;-88
2022/05/27 12:00:11;;;;;;;6.30;3.90;;;21.10;55.40;;;;;;5068149;28;20450;-88
2022/05/27 12:02:51;;;;;;;4.40;4.00;;;21.20;55.60;;;;;;5076667;28;20926;-88
2022/05/27 12:05:22;;;;;;;4.13;3.63;;;21.50;54.50;;;;;;5070523;28;20824;-89
2022/05/27 12:07:55;;;;;;;3.97;3.60;;;21.30;53.60;;;;;;5055384;28;20452;-89
2022/05/27 12:10:26;;;;;;;4.90;3.90;;;21.30;54.20;;;;;;5071603;28;20447;-89
2022/05/27 12:12:59;;;;;;;5.10;4.20;;;21.40;54.20;;;;;;5083724;28;20793;-88
2022/05/27 12:15:36;;;;;;;4.77;3.70;;;21.40;54.10;;;;;;5057344;28;20472;-90
2022/05/27 12:18:05;;;;;;;3.50;3.20;;;21.70;53.80;;;;;;5058618;28;20486;-90
2022/05/27 12:20:35;;;;;;;4.70;3.70;;;22.00;53.70;;;;;;5068633;28;20541;-89
2022/05/27 12:23:09;;;;;;;3.93;3.57;;;22.20;52.50;;;;;;5053082;28;20455;-88
2022/05/27 12:25:39;;;;;;;4.10;3.73;;;22.40;52.70;;;;;;5085708;28;20450;-87
2022/05/27 12:28:07;;;;;;;11.17;3.17;;;22.40;51.90;;;;;;5049441;28;20467;-87
2022/05/27 12:30:40;;;;;;;3.70;3.40;;;22.40;51.50;;;;;;5087503;28;20471;-87
2022/05/27 12:33:10;;;;;;;3.63;3.33;;;22.50;52.00;;;;;;5073087;28;20673;-88
2022/05/27 12:35:57;;;;;;;3.97;3.20;;;22.40;51.80;;;;;;5073664;28;20452;-90
2022/05/27 12:38:27;;;;;;;3.47;3.13;;;22.20;52.30;;;;;;5074862;28;20520;-88
2022/05/27 12:40:56;;;;;;;3.97;3.13;;;22.40;52.40;;;;;;5070036;28;20525;-88
2022/05/27 12:43:27;;;;;;;3.90;3.47;;;22.50;52.00;;;;;;5042605;28;20510;-91
2022/05/27 12:45:56;;;;;;;3.87;3.47;;;22.40;52.00;;;;;;5040412;28;20450;-88
2022/05/27 12:48:31;;;;;;;6.07;3.23;;;22.50;52.00;;;;;;5060738;28;20704;-88
2022/05/27 12:51:02;;;;;;;4.20;3.57;;;22.50;51.90;;;;;;5084529;28;20973;-88
2022/05/27 12:53:45;;;;;;;3.13;2.93;;;22.30;52.20;;;;;;5046097;28;20447;-88
2022/05/27 13:02:48;;;;;;;4.03;2.60;;;22.80;52.10;;;;;;5060712;28;20435;-88
2022/05/27 13:05:17;;;;;;;3.73;2.90;;;22.80;51.50;;;;;;5077786;28;20452;-90
2022/05/27 13:07:49;;;;;;;3.60;2.87;;;22.70;52.10;;;;;;5061999;28;20563;-88
2022/05/27 13:10:46;;;;;;;2.73;2.53;;;23.00;52.60;;;;;;5077611;28;20954;-91
2022/05/27 13:13:16;;;;;;;2.93;2.73;;;23.20;51.30;;;;;;5065047;28;21074;-90
2022/05/27 13:15:53;;;;;;;3.47;3.00;;;23.10;50.80;;;;;;5084622;28;20482;-88
2022/05/27 13:18:34;;;;;;;2.73;2.53;;;23.10;50.70;;;;;;5066421;28;20466;-87
2022/05/27 13:21:09;;;;;;;3.87;2.93;;;23.00;50.50;;;;;;5059842;27;20439;-87
2022/05/27 13:23:51;;;;;;;3.53;2.53;;;22.50;51.20;;;;;;5086171;28;20462;-91
2022/05/27 13:26:30;;;;;;;4.43;2.70;;;22.50;52.10;;;;;;5059510;28;20455;-88
2022/05/27 13:28:58;;;;;;;4.40;2.57;;;22.60;51.90;;;;;;5063764;28;21004;-90
2022/05/27 13:31:32;;;;;;;2.50;2.30;;;22.30;52.20;;;;;;5081256;28;20477;-88
2022/05/27 13:34:06;;;;;;;4.20;2.97;;;21.90;53.60;;;;;;5050552;28;20479;-89
2022/05/27 13:36:38;;;;;;;6.17;3.10;;;21.80;55.20;;;;;;5071123;28;20464;-89
2022/05/27 13:39:11;;;;;;;2.50;2.07;;;21.60;57.20;;;;;;5046657;28;20456;-87
2022/05/27 13:41:41;;;;;;;5.30;2.17;;;21.20;58.60;;;;;;5060729;28;20457;-89